Terminal Aerodrome Forecast
Issued by NWS

Home | Current Version | Previous Version | Text Only | Print | Product List | Glossary On
Versions: 1 2 3 4 5 6 7 8 9 10 11 12 13 14 15 16 17 18 19 20 21 22 23 24 25 26 27 28 29 30 31 32
000
FTAK31 PAFA 252336
TAFAOM
TAF
PAOM 252336Z 2600/2624 24009KT P6SM VCSH FEW035 SCT050 SCT250
     FM260800 02004KT P6SM FEW050 SCT250
     FM262000 09010KT P6SM SCT050 SCT200=

USA.gov is the U.S. government's official web portal to all federal, state and local government web resources and services.